Main page
METAR-TAF:

METAR-TAF

Airports :

Gratiot Community Airport

Alma, Michigan, United States

latitude: 43-19-19N, longitude: 084-41-16W, elevation: 751 ft

Current weather observation

The report was made 15 minutes ago, at 18:55 UTC
Wind 6 mph from the Southwest
Temperature 43°F
Humidity 49%
Pressure 30.26 in. Hg
Visibility: 10 miles
Broken clouds at a height of 3700 ft

METAR: KAMN 241855Z AUTO 23005KT 10SM BKN037 06/M04 A3026 RMK AO2 T00641044

Time: 15:10 (19:10 UTC)


TAF: missing

Weather observations and forecasts of more than 4000 airports (METAR and TAF reports).

The available stations are represented by yellow and red dots on the map.

Hover mouse over dot to see the name of the station.

Then click to see weather observations and forecasts.

To change the map : click on the green buttons with a black cross to zoom in, on the green button with a dash to zoom out, or on the green arrows for adjacent maps.


METAR-TAF: